• Join FlightAware (Why Join?)
  • Login
  • US Flag 
11:00AM EST


 

Airport Tracker/Info


-or-


 

Live Flight TrackerFlight Track Log ✈ N960DL ✈ 21-May-2013 ✈ KCLT - KATL

Flight Track Log - Related Links

Times and Time Zones

All times are in EDT time to prevent confusion due to time zone crossing. See the N960DL flight status page for this flight to view local times or setup timezone preferences in your user account.

Time Position Orientation Groundspeed Altitude Reporting Facility
EDT Latitude Longitude Course Direction KTS MPH feet Rate Location/Type
12:56PM 35.1933 -80.9533 270° West 158 182 1,700  Level Atlanta Center
12:57PM 35.1258 -81.0067 213° Southwest 250 288 4,000 2,100 Climbing Atlanta Center
12:58PM 35.2599 -81.2325 242° Southwest  Level FlightAware Approximate
12:58PM 35.1322 -81.0953 275° West 275 316 7,100  Level Atlanta Center
12:59PM 35.2038 -81.3590 239° Southwest  Level FlightAware Approximate
12:59PM 35.1300 -81.1842 268° West 280 322 8,500  Level Atlanta Center
01:00PM 35.1424 -81.4818 239° Southwest  Level FlightAware Approximate
01:00PM 35.1322 -81.2833 272° West 290 334 10,800  Level Atlanta Center
01:01PM 35.1334 -81.6226 270° West  Level FlightAware Approximate
01:01PM 35.1389 -81.3947 274° West 332 382 12,800  Level Atlanta Center
01:02PM 35.1436 -81.5217 273° West 366 421 14,100 1,500 Climbing Atlanta Center
01:03PM 35.1381 -81.6489 267° West 399 459 15,900 2,100 Climbing Atlanta Center
01:04PM 35.1197 -81.7942 261° West 431 496 18,300 2,160 Climbing Atlanta Center
01:05PM 35.0828 -81.9397 253° West 443 510 20,300 1,800 Climbing Atlanta Center
01:06PM 35.0414 -82.0828 251° West 456 525 22,000 840 Climbing Atlanta Center
01:07PM 35.0058 -82.2283 253° West 450 518 22,000  Level Atlanta Center
01:08PM 34.9619 -82.3686 249° West 445 512 22,000  Level Atlanta Center
01:09PM 34.9222 -82.5111 251° West 450 518 22,000  Level Atlanta Center
01:10PM 34.8800 -82.6539 250° West 450 518 22,000  Level Atlanta Center
01:11PM 34.8294 -82.8039 248° West 450 518 22,000  Level Atlanta Center
01:12PM 34.7719 -82.8883 230° Southwest 423 487 22,000  Level Atlanta Center
01:13PM 34.6936 -83.0081 232° Southwest 423 487 22,000  Level Atlanta Center
01:14PM 34.6172 -83.1125 228° Southwest 413 475 22,000 -120 Level Atlanta Center
01:15PM 34.5428 -83.2167 229° Southwest 413 475 21,800 -840 Descending Atlanta Center
01:16PM 34.4664 -83.3183 228° Southwest 413 475 20,400 -1,500 Descending Atlanta Center
01:17PM 34.3981 -83.4194 231° Southwest 401 461 18,800 -1,860 Descending Atlanta Center
01:18PM 34.3275 -83.5131 228° Southwest 387 445 16,700 -2,280 Descending Atlanta Center
01:19PM 34.2528 -83.6142 228° Southwest 376 433 14,300 -1,980 Descending Atlanta Center
01:20PM 34.1883 -83.7047 229° Southwest 370 426 12,800 -1,200 Descending Atlanta Center
01:21PM 34.1217 -83.7953 228° Southwest 363 418 12,000 -540 Descending Atlanta Center
01:22PM 34.0697 -83.8783 233° Southwest 340 391 11,800 -240 Descending Atlanta Center
01:22PM 34.0667 -83.9000 260° West 299 344 11,700 -900 Descending Atlanta TRACON
01:23PM 34.0167 -83.9833 234° Southwest 297 342 10,700 -960 Descending Atlanta TRACON
01:24PM 33.9833 -84.0667 244° Southwest 277 319 9,700 -900 Descending Atlanta TRACON
01:25PM 33.9167 -84.1000 203° Southwest 263 303 8,900 -900 Descending Atlanta TRACON
01:26PM 33.8611 -84.1089 188° South 258 297 8,300 -1,140 Descending Atlanta Center
01:27PM 33.7964 -84.1264 193° South 263 303 7,100 -1,440 Descending Atlanta Center
01:27PM 33.7667 -84.1333 191° South 260 299 6,400 -1,560 Descending Atlanta TRACON
01:28PM 33.7000 -84.1500 192° South 245 282 5,000 -1,140 Descending Atlanta TRACON
01:29PM 33.6500 -84.1833 209° Southwest 203 234 4,200 -840 Descending Atlanta TRACON